Albatros — C6CN4 — position and weather

sailwx.info

Track history (hours):
 
Tides and Currents Weather Stations Pressure Air Temp Water Temp Dewpoint Dewpoint Depression Visibility Wind Speed Wind Dir Waves Ship Positions

Albatros

Last reported at 2018-May-27 07:59 UTC. Time now 2018-May-27 08:15 UTC.
Position N 59°19' E 018°06'.

Length 205.5 m; beam 25.2 m; draft 7.6 m.

Type: Passenger vessel. MMSI: 308784000.

Date/timePositionNaut miles runAvg speedWind from/ knotsBaromVisibWave heightAir tempDewpointWater temp
2018-May-27 07:59N 59°19' E 018°06'0 0.0
2018-May-27 07:29N 59°19' E 018°06'0 0.0
2018-May-27 07:01N 59°19' E 018°06'0 0.3
2018-May-27 06:31N 59°19' E 018°06'3 6.8
2018-May-27 06:01N 59°20' E 018°12'5 9.3
2018-May-27 05:31N 59°23' E 018°20'3 6.6
2018-May-27 05:01N 59°23' E 018°27'4 8.3
2018-May-27 04:30N 59°27' E 018°26'610.7
2018-May-27 03:59N 59°32' E 018°33'5 9.9
2018-May-27 03:30N 59°35' E 018°40'612.1
2018-May-27 03:01N 59°38' E 018°51'510.0
2018-May-27 02:31N 59°41' E 018°58'714.4
2018-May-27 02:00N 59°44' E 019°11'714.2
2018-May-27 01:31N 59°47' E 019°24'611.6
2018-May-27 01:00N 59°48' E 019°36'611.6
2018-May-27 00:30N 59°46' E 019°47'813.3
2018-May-26 23:55N 59°41' E 019°58'713.1
2018-May-26 23:24N 59°36' E 020°08'1913.5
2018-May-26 21:58N 59°34' E 020°46'613.2
2018-May-26 21:31N 59°33' E 020°58'713.1
2018-May-26 21:00N 59°32' E 021°11'612.8
2018-May-26 20:30N 59°31' E 021°23'612.7
2018-May-26 20:00N 59°30' E 021°36'612.6
2018-May-26 19:30N 59°29' E 021°48'713.1
2018-May-26 19:00N 59°28' E 022°01'612.9
2018-May-26 18:30N 59°27' E 022°13'612.7
2018-May-26 18:00N 59°29' E 022°25'612.7
2018-May-26 17:30N 59°32' E 022°36'612.6
2018-May-26 17:01N 59°34' E 022°48'714.4
2018-May-26 16:30N 59°36' E 023°02'714.3
2018-May-26 16:00N 59°38' E 023°16'715.0
2018-May-26 15:30N 59°40' E 023°30'815.1
2018-May-26 15:00N 59°42' E 023°44'714.9
2018-May-26 14:31N 59°44' E 023°59'815.1
2018-May-26 14:00N 59°46' E 024°13'715.1
2018-May-26 13:30N 59°48' E 024°27'714.7
2018-May-26 13:00N 59°51' E 024°41'715.0
2018-May-26 12:31N 59°55' E 024°53'510.4
2018-May-26 12:00N 59°60' E 024°57'611.3
2018-May-26 11:31N 60°05' E 024°58'4 9.0
2018-May-26 11:00N 60°10' E 024°58'0 0.0
2018-May-26 10:30N 60°10' E 024°58'0 0.0
2018-May-26 10:00N 60°10' E 024°58'0 0.0
2018-May-26 09:30N 60°10' E 024°58'0 0.0
2018-May-26 09:00N 60°10' E 024°58'0 0.0
2018-May-26 08:30N 60°10' E 024°58'0 0.0
2018-May-26 08:00N 60°10' E 024°58'0 0.0
2018-May-26 07:27N 60°10' E 024°58'0 0.0
2018-May-26 06:57N 60°10' E 024°58'0 0.0
2018-May-26 06:30N 60°10' E 024°58'0 0.0
2018-May-26 05:30N 60°10' E 024°58'0 0.0
2018-May-26 05:00N 60°10' E 024°58'0 0.0
2018-May-26 04:30N 60°10' E 024°58'0 0.1
2018-May-26 04:00N 60°10' E 024°59'2 3.7
2018-May-26 03:30N 60°08' E 024°59'612.6
2018-May-26 03:00N 60°02' E 024°57'612.6
2018-May-26 02:30N 59°56' E 025°04'714.3
2018-May-26 02:00N 59°56' E 025°18'917.4
2018-May-26 01:31N 59°55' E 025°35'917.3
2018-May-26 01:01N 59°57' E 025°52'917.5
2018-May-26 00:30N 59°59' E 026°09'917.4
2018-May-26 00:00N 60°01' E 026°26'817.0
2018-May-25 23:30N 60°01' E 026°43'1017.2
2018-May-25 22:54N 59°60' E 027°04'717.2
2018-May-25 22:30N 60°03' E 027°15'917.2
2018-May-25 22:00N 60°08' E 027°30'917.2
2018-May-25 21:30N 60°12' E 027°45'917.4
2018-May-25 21:00N 60°10' E 028°03'919.2
2018-May-25 20:30N 60°06' E 028°20'918.7
2018-May-25 20:00N 60°03' E 028°38'1019.4
2018-May-25 19:30N 60°03' E 028°58'2413.8
2018-May-25 17:45N 59°59' E 029°45'2 7.8
2018-May-25 17:30N 59°58' E 029°48'510.2
2018-May-25 17:00N 59°56' E 029°57'5 9.8
2018-May-25 16:30N 59°54' E 030°07'3 6.2
2018-May-25 16:00N 59°54' E 030°13'3 5.6
2018-May-25 15:30N 59°56' E 030°16'0 0.3
2018-May-25 15:00N 59°56' E 030°16'0 0.0
2018-May-25 14:30N 59°56' E 030°16'0 0.0
2018-May-25 14:00N 59°56' E 030°16'0 0.0
2018-May-25 13:30N 59°56' E 030°16'0 0.0
2018-May-25 13:00N 59°56' E 030°16'0 0.0
2018-May-25 12:30N 59°56' E 030°16'0 0.0
2018-May-25 12:00N 59°56' E 030°16'0 0.0
2018-May-25 11:30N 59°56' E 030°16'0 0.0
2018-May-25 11:00N 59°56' E 030°16'0 0.0
2018-May-25 10:30N 59°56' E 030°16'0 0.0
2018-May-25 10:00N 59°56' E 030°16'0 0.0
2018-May-25 09:30N 59°56' E 030°16'0 0.0
2018-May-25 09:00N 59°56' E 030°16'0 0.0
2018-May-25 08:30N 59°56' E 030°16'0 0.0
2018-May-25 08:00N 59°56' E 030°16'0 0.0
2018-May-25 07:27N 59°56' E 030°16'0 0.0
2018-May-25 07:00N 59°56' E 030°16'0 0.0
2018-May-25 06:30N 59°56' E 030°16'0 0.0
2018-May-25 06:00N 59°56' E 030°16'0 0.0
2018-May-25 05:30N 59°56' E 030°16'0 0.0
2018-May-25 05:00N 59°56' E 030°16'0 0.0
2018-May-25 04:30N 59°56' E 030°16'0 0.0
2018-May-25 04:00N 59°56' E 030°16'0 0.0
2018-May-25 03:30N 59°56' E 030°16'0 0.0
2018-May-25 03:00N 59°56' E 030°16'0 0.0
2018-May-25 02:30N 59°56' E 030°16'0 0.0
2018-May-25 01:59N 59°56' E 030°16'0 0.0
2018-May-25 01:29N 59°56' E 030°16'0 0.0
2018-May-25 00:59N 59°56' E 030°16'0 0.0
2018-May-25 00:29N 59°56' E 030°16'0 0.0
2018-May-24 23:59N 59°56' E 030°16'0 0.0
2018-May-24 23:29N 59°56' E 030°16'0 0.0
2018-May-24 22:59N 59°56' E 030°16'0 0.0
2018-May-24 22:26N 59°56' E 030°16'0 0.0
2018-May-24 21:59N 59°56' E 030°16'0 0.0
2018-May-24 21:29N 59°56' E 030°16'0 0.0
2018-May-24 20:59N 59°56' E 030°16'0 0.0
2018-May-24 20:29N 59°56' E 030°16'0 0.0
2018-May-24 19:59N 59°56' E 030°16'0 0.0
2018-May-24 19:29N 59°56' E 030°16'0 0.0
2018-May-24 18:59N 59°56' E 030°16'0 0.0
2018-May-24 18:29N 59°56' E 030°16'0 0.0
2018-May-24 17:59N 59°56' E 030°16'0 0.0
2018-May-24 17:29N 59°56' E 030°16'0 0.0
2018-May-24 16:59N 59°56' E 030°16'0 0.0
2018-May-24 16:29N 59°56' E 030°16'0 0.0
2018-May-24 15:59N 59°56' E 030°16'0 0.0
2018-May-24 15:29N 59°56' E 030°16'0 0.0
2018-May-24 14:59N 59°56' E 030°16'0 0.0
2018-May-24 14:29N 59°56' E 030°16'0 0.0
2018-May-24 13:59N 59°56' E 030°16'0 0.0
2018-May-24 13:29N 59°56' E 030°16'0 0.0
2018-May-24 08:59N 59°56' E 030°16'0 0.0
2018-May-24 08:29N 59°56' E 030°16'0 0.0
2018-May-24 07:59N 59°56' E 030°16'0 1.0
2018-May-24 07:30N 59°55' E 030°16'3 5.7
2018-May-24 07:00N 59°53' E 030°12'3 6.5
2018-May-24 06:30N 59°54' E 030°06'5 9.6
2018-May-24 06:00N 59°56' E 029°57'510.4
2018-May-24 05:30N 59°58' E 029°47'5 9.9
2018-May-24 05:00N 60°00' E 029°39'1410.8
2018-May-24 03:42N 60°02' E 029°11'211.2
2018-May-24 03:29N 60°02' E 029°06'511.1
2018-May-24 03:00N 60°02' E 028°55'611.0
2018-May-24 02:30N 60°02' E 028°44'611.4
2018-May-24 02:00N 60°02' E 028°32'611.4
2018-May-24 01:30N 60°05' E 028°22'611.5
2018-May-24 01:00N 60°08' E 028°12'611.5
2018-May-24 00:30N 60°09' E 028°01'612.0
2018-May-24 00:00N 60°11' E 027°49'713.6
2018-May-23 23:30N 60°08' E 027°37'714.8
2018-May-23 23:00N 60°04' E 027°24'815.1
2018-May-23 22:30N 60°00' E 027°11'714.1
2018-May-23 21:59N 59°59' E 026°57'715.2
2018-May-23 21:30N 59°60' E 026°42'814.3
2018-May-23 20:57N 59°57' E 026°27'612.6
2018-May-23 20:30N 59°56' E 026°17'2513.1
2018-May-23 18:37N 59°50' E 025°29'213.0
2018-May-23 18:30N 59°49' E 025°26'612.9
2018-May-23 18:00N 59°48' E 025°13'713.2
2018-May-23 17:30N 59°47' E 025°01'714.9
2018-May-23 17:00N 59°42' E 024°49'714.3
2018-May-23 16:30N 59°36' E 024°41'713.8
2018-May-23 16:00N 59°30' E 024°45'3 5.0
2018-May-23 15:29N 59°27' E 024°46'0 0.0
2018-May-23 14:59N 59°27' E 024°46'0 0.0
2018-May-23 14:29N 59°27' E 024°46'0 0.0
2018-May-23 13:59N 59°27' E 024°46'0 0.0
2018-May-23 13:29N 59°27' E 024°46'0 0.0
2018-May-23 12:59N 59°27' E 024°46'0 0.0
2018-May-23 12:29N 59°27' E 024°46'0 0.0
2018-May-23 11:59N 59°27' E 024°46'0 0.0
2018-May-23 11:29N 59°27' E 024°46'0 0.0
2018-May-23 10:59N 59°27' E 024°46'0 0.0
2018-May-23 10:30N 59°27' E 024°46'0 0.0
2018-May-23 10:00N 59°27' E 024°46'0 0.0
2018-May-23 09:28N 59°27' E 024°46'1 1.5
2018-May-23 09:00N 59°28' E 024°46'611.1
2018-May-23 08:30N 59°30' E 024°36'612.2
2018-May-23 08:01N 59°30' E 024°24'612.2
2018-May-23 07:29N 59°30' E 024°12'612.7
2018-May-23 07:00N 59°30' E 023°59'712.7
2018-May-23 06:29N 59°30' E 023°46'612.8
2018-May-23 06:00N 59°31' E 023°34'612.3
2018-May-23 05:30N 59°30' E 023°22'815.5
2018-May-23 05:00N 59°29' E 023°07'1014.8
2018-May-23 04:19N 59°27' E 022°48'514.6
2018-May-23 04:00N 59°25' E 022°39'3615.2
2018-May-23 01:39N 59°03' E 021°44'215.1
2018-May-23 01:30N 59°01' E 021°41'715.0
2018-May-23 01:00N 58°56' E 021°31'815.1
2018-May-23 00:30N 58°51' E 021°20'815.2
2018-May-23 00:00N 58°47' E 021°08'134 7.9
2018-May-22 07:03N 57°24' E 017°48'112.1
2018-May-22 07:00N 57°23' E 017°48'912.3
2018-May-22 06:17N 57°15' E 017°50'512.4
2018-May-22 05:54N 57°10' E 017°52'512.4
2018-May-22 05:30N 57°05' E 017°53'612.1
2018-May-22 05:00N 56°59' E 017°55'812.3
2018-May-22 04:23N 56°52' E 017°57'512.8
2018-May-22 04:00N 56°47' E 017°58'612.8
2018-May-22 03:30N 56°40' E 018°00'612.8
2018-May-22 03:00N 56°34' E 018°02'612.7
2018-May-22 02:30N 56°28' E 018°04'612.8
2018-May-22 02:00N 56°22' E 018°05'713.1
2018-May-22 01:30N 56°15' E 018°07'814.9
2018-May-22 00:57N 56°07' E 018°11'715.0
2018-May-22 00:28N 56°00' E 018°14'715.1
2018-May-22 00:00N 55°53' E 018°18'814.9
2018-May-21 23:30N 55°46' E 018°22'814.9
2018-May-21 23:00N 55°39' E 018°26'714.9
2018-May-21 22:30N 55°32' E 018°31'714.0
2018-May-21 22:00N 55°25' E 018°31'612.9
2018-May-21 21:30N 55°19' E 018°36'713.5
2018-May-21 21:00N 55°13' E 018°40'714.7
2018-May-21 20:30N 55°06' E 018°45'714.8
2018-May-21 20:00N 54°60' E 018°50'714.4
2018-May-21 19:30N 54°53' E 018°55'714.4
2018-May-21 19:00N 54°46' E 018°59'713.8
2018-May-21 18:30N 54°39' E 018°57'714.3
2018-May-21 18:00N 54°33' E 018°51'713.1
2018-May-21 17:30N 54°28' E 018°43'4 8.2
2018-May-21 17:00N 54°25' E 018°39'1 1.5
2018-May-21 16:26N 54°24' E 018°40'0 0.0
2018-May-21 15:59N 54°24' E 018°40'0 0.0
2018-May-21 15:29N 54°24' E 018°40'0 0.0
2018-May-21 14:59N 54°24' E 018°40'0 0.0
2018-May-21 14:29N 54°24' E 018°40'0 0.0
2018-May-21 13:59N 54°24' E 018°40'0 0.0
2018-May-21 13:29N 54°24' E 018°40'0 0.0
2018-May-21 12:59N 54°24' E 018°40'0 0.0
2018-May-21 12:29N 54°24' E 018°40'0 0.0
2018-May-21 11:59N 54°24' E 018°40'0 0.0
2018-May-21 11:29N 54°24' E 018°40'0 0.0
2018-May-21 10:59N 54°24' E 018°40'0 0.0
2018-May-21 10:29N 54°24' E 018°40'0 0.0
2018-May-21 10:00N 54°24' E 018°40'1 2.9
2018-May-21 09:30N 54°23' E 018°40'1 2.8
2018-May-21 09:00N 54°24' E 018°40'4 7.4
2018-May-21 08:30N 54°28' E 018°41'714.4
2018-May-21 08:00N 54°33' E 018°49'1019.0
2018-May-21 07:30N 54°42' E 018°58'917.6
2018-May-21 07:00N 54°50' E 018°53'1019.6
2018-May-21 06:30N 54°56' E 018°39'918.4
2018-May-21 06:00N 54°58' E 018°24'918.6
2018-May-21 05:30N 54°58' E 018°08'918.5
2018-May-21 05:00N 54°58' E 017°51'918.4
2018-May-21 04:30N 54°55' E 017°36'1118.5
2018-May-21 03:54N 54°53' E 017°17'718.4
2018-May-21 03:30N 54°51' E 017°05'918.5
2018-May-21 03:00N 54°48' E 016°49'918.7
2018-May-21 02:30N 54°47' E 016°34'918.9
2018-May-21 02:00N 54°45' E 016°17'1019.0
2018-May-21 01:30N 54°44' E 016°01'1019.1
2018-May-21 01:00N 54°42' E 015°45'1019.3
2018-May-21 00:30N 54°40' E 015°28'1019.0
2018-May-21 00:00N 54°39' E 015°12'918.8
2018-May-20 23:31N 54°37' E 014°56'918.8
2018-May-20 23:00N 54°36' E 014°40'918.3
2018-May-20 22:30N 54°35' E 014°24'917.1
2018-May-20 22:00N 54°36' E 014°10'918.5
2018-May-20 21:30N 54°28' E 014°04'917.5
2018-May-20 21:00N 54°20' E 014°08'918.4
2018-May-20 20:30N 54°11' E 014°13'815.8
2018-May-20 20:00N 54°03' E 014°15'612.9
2018-May-20 19:30N 53°56' E 014°16'9 7.9
2018-May-20 18:24N 53°48' E 014°21'712.7
2018-May-20 17:51N 53°43' E 014°28'411.7
2018-May-20 17:30N 53°40' E 014°32'510.6
2018-May-20 17:01N 53°35' E 014°36'5 9.1
2018-May-20 16:29N 53°30' E 014°38'4 7.7
2018-May-20 15:59N 53°26' E 014°35'1 1.0
2018-May-20 15:25N 53°26' E 014°35'0 0.0
2018-May-20 14:55N 53°26' E 014°35'0 0.0
2018-May-20 14:25N 53°26' E 014°35'0 0.0
2018-May-20 13:55N 53°26' E 014°35'0 0.0
2018-May-20 13:25N 53°26' E 014°35'0 0.0
2018-May-20 12:58N 53°26' E 014°35'0 0.0
2018-May-20 12:28N 53°26' E 014°35'0 0.0
2018-May-20 11:58N 53°26' E 014°35'0 0.0
2018-May-20 11:28N 53°26' E 014°35'0 0.0
2018-May-20 10:58N 53°26' E 014°35'0 0.0
2018-May-20 10:25N 53°26' E 014°35'0 0.0
2018-May-20 09:55N 53°26' E 014°35'0 0.0
2018-May-20 09:25N 53°26' E 014°35'0 0.0
2018-May-20 08:55N 53°26' E 014°35'0 0.0
2018-May-20 08:25N 53°26' E 014°35'0 0.0
2018-May-20 07:58N 53°26' E 014°35'0 0.0
2018-May-20 07:29N 53°26' E 014°35'1 1.1
2018-May-20 06:59N 53°26' E 014°35'2 3.9
2018-May-20 06:28N 53°28' E 014°36'4 7.9
2018-May-20 06:00N 53°32' E 014°38'5 9.4
2018-May-20 05:29N 53°36' E 014°35'510.2
2018-May-20 05:01N 53°41' E 014°31'611.9
2018-May-20 04:29N 53°45' E 014°25'55 9.6
2018-May-19 22:47N 54°35' E 013°44'410.8
2018-May-19 22:26N 54°38' E 013°41'5 9.9
2018-May-19 21:54N 54°43' E 013°36'4 9.4
2018-May-19 21:30N 54°45' E 013°31'510.1
2018-May-19 21:00N 54°46' E 013°23'10 9.5
2018-May-19 19:55N 54°46' E 013°05'4 8.4
2018-May-19 19:29N 54°46' E 012°58'29 9.3
2018-May-19 16:24N 54°30' E 012°16'4 9.9
2018-May-19 16:01N 54°27' E 012°14'5 9.7
2018-May-19 15:30N 54°24' E 012°07'910.0
2018-May-19 14:35N 54°24' E 011°51'110.0
2018-May-19 14:30N 54°25' E 011°50'5 9.9
2018-May-19 13:58N 54°26' E 011°41'511.6
2018-May-19 13:30N 54°28' E 011°32'5 9.9
2018-May-19 13:00N 54°30' E 011°25'5 9.8
2018-May-19 12:30N 54°33' E 011°17'5 9.9
2018-May-19 12:00N 54°35' E 011°10'4 8.6
2018-May-19 11:30N 54°35' E 011°02'4 8.7
2018-May-19 11:00N 54°35' E 010°55'4 8.7
2018-May-19 10:30N 54°34' E 010°47'4 8.7
2018-May-19 10:00N 54°34' E 010°40'4 8.5
2018-May-19 09:29N 54°33' E 010°32'4 8.9
2018-May-19 09:00N 54°31' E 010°26'8 9.3
2018-May-19 08:12N 54°27' E 010°15'13 4.8
2018-May-19 05:29N 54°21' E 009°55'4 7.8
2018-May-19 05:00N 54°22' E 009°49'4 8.0
2018-May-19 04:30N 54°20' E 009°43'4 7.2
2018-May-19 04:00N 54°17' E 009°39'3 5.8
2018-May-19 03:30N 54°15' E 009°37'4 7.3
2018-May-19 03:00N 54°12' E 009°33'4 8.6
2018-May-19 02:30N 54°10' E 009°26'4 8.6
2018-May-19 02:00N 54°08' E 009°20'4 8.4
2018-May-19 01:30N 54°04' E 009°19'4 8.7
2018-May-19 01:00N 53°59' E 009°17'3 6.8
2018-May-19 00:30N 53°57' E 009°14'2 4.1
2018-May-19 00:00N 53°55' E 009°11'2 4.0
2018-May-18 23:30N 53°54' E 009°09'1 1.4
2018-May-18 23:00N 53°53' E 009°08'1 2.3
2018-May-18 22:30N 53°53' E 009°06'2 4.4
2018-May-18 22:00N 53°52' E 009°03'611.6
2018-May-18 21:30N 53°50' E 008°53'612.5
2018-May-18 21:00N 53°52' E 008°43'814.7
2018-May-18 20:30N 53°58' E 008°35'18 8.6
2018-May-18 18:21N 53°48' E 008°08'720.3
2018-May-18 18:00N 53°43' E 008°16'1120.9
2018-May-18 17:30N 53°37' E 008°30'3 6.5
2018-May-18 16:58N 53°34' E 008°33'0 0.0
2018-May-18 16:28N 53°34' E 008°33'0 0.0
2018-May-18 15:55N 53°34' E 008°33'0 0.0
2018-May-18 15:28N 53°34' E 008°33'0 0.0
2018-May-18 14:58N 53°34' E 008°33'0 0.0
2018-May-18 14:28N 53°34' E 008°33'0 0.0
2018-May-18 13:55N 53°34' E 008°33'0 0.0
2018-May-18 13:28N 53°34' E 008°33'0 0.0
2018-May-18 12:49N 53°34' E 008°33'0 0.0
2018-May-18 12:28N 53°34' E 008°33'0 0.0
2018-May-18 11:58N 53°34' E 008°33'0 0.0
2018-May-18 11:28N 53°34' E 008°33'0 0.0
2018-May-18 10:58N 53°34' E 008°33'0 0.0
2018-May-18 10:28N 53°34' E 008°33'0 0.0
2018-May-18 09:58N 53°34' E 008°33'0 0.0
2018-May-18 09:28N 53°34' E 008°33'0 0.0
2018-May-18 08:58N 53°34' E 008°33'0 0.0
2018-May-18 08:28N 53°34' E 008°33'0 0.0
2018-May-18 07:58N 53°34' E 008°33'0 0.0
2018-May-18 07:28N 53°34' E 008°33'0 0.0
2018-May-18 06:58N 53°34' E 008°33'0 0.0
2018-May-18 06:28N 53°34' E 008°33'0 0.0
2018-May-18 06:01N 53°34' E 008°33'0 0.2
2018-May-18 05:31N 53°34' E 008°33'3 5.7
2018-May-18 05:00N 53°36' E 008°30'612.7
2018-May-18 04:30N 53°40' E 008°22'714.1
2018-May-18 04:00N 53°45' E 008°13'5511.0
2018-May-17 22:58N 54°09' E 006°48'611.9
2018-May-17 22:27N 54°09' E 006°37'1411.9
2018-May-17 21:17N 54°08' E 006°14'3213.4
2018-May-17 18:54N 54°04' E 005°19'  
Track history (hours):
 
Tides and Currents Weather Stations Pressure Air Temp Water Temp Dewpoint Dewpoint Depression Visibility Wind Speed Wind Dir Waves Ship Positions

Albatros

Last reported at 2018-May-27 07:59 UTC. Time now 2018-May-27 08:15 UTC.
Position N 59°19' E 018°06'.

Length 205.5 m; beam 25.2 m; draft 7.6 m.

Type: Passenger vessel. MMSI: 308784000.

Date/timePositionNaut miles runAvg speedWind from/ knotsBaromVisibWave heightAir tempDewpointWater temp
2018-May-27 07:59N 59°19' E 018°06'0 0.0
2018-May-27 07:29N 59°19' E 018°06'0 0.0
2018-May-27 07:01N 59°19' E 018°06'0 0.3
2018-May-27 06:31N 59°19' E 018°06'3 6.8
2018-May-27 06:01N 59°20' E 018°12'5 9.3
2018-May-27 05:31N 59°23' E 018°20'3 6.6
2018-May-27 05:01N 59°23' E 018°27'4 8.3
2018-May-27 04:30N 59°27' E 018°26'610.7
2018-May-27 03:59N 59°32' E 018°33'5 9.9
2018-May-27 03:30N 59°35' E 018°40'612.1
2018-May-27 03:01N 59°38' E 018°51'510.0
2018-May-27 02:31N 59°41' E 018°58'714.4
2018-May-27 02:00N 59°44' E 019°11'714.2
2018-May-27 01:31N 59°47' E 019°24'611.6
2018-May-27 01:00N 59°48' E 019°36'611.6
2018-May-27 00:30N 59°46' E 019°47'813.3
2018-May-26 23:55N 59°41' E 019°58'713.1
2018-May-26 23:24N 59°36' E 020°08'1913.5
2018-May-26 21:58N 59°34' E 020°46'613.2
2018-May-26 21:31N 59°33' E 020°58'713.1
2018-May-26 21:00N 59°32' E 021°11'612.8
2018-May-26 20:30N 59°31' E 021°23'612.7
2018-May-26 20:00N 59°30' E 021°36'612.6
2018-May-26 19:30N 59°29' E 021°48'713.1
2018-May-26 19:00N 59°28' E 022°01'612.9
2018-May-26 18:30N 59°27' E 022°13'612.7
2018-May-26 18:00N 59°29' E 022°25'612.7
2018-May-26 17:30N 59°32' E 022°36'612.6
2018-May-26 17:01N 59°34' E 022°48'714.4
2018-May-26 16:30N 59°36' E 023°02'714.3
2018-May-26 16:00N 59°38' E 023°16'715.0
2018-May-26 15:30N 59°40' E 023°30'815.1
2018-May-26 15:00N 59°42' E 023°44'714.9
2018-May-26 14:31N 59°44' E 023°59'815.1
2018-May-26 14:00N 59°46' E 024°13'715.1
2018-May-26 13:30N 59°48' E 024°27'714.7
2018-May-26 13:00N 59°51' E 024°41'715.0
2018-May-26 12:31N 59°55' E 024°53'510.4
2018-May-26 12:00N 59°60' E 024°57'611.3
2018-May-26 11:31N 60°05' E 024°58'4 9.0
2018-May-26 11:00N 60°10' E 024°58'0 0.0
2018-May-26 10:30N 60°10' E 024°58'0 0.0
2018-May-26 10:00N 60°10' E 024°58'0 0.0
2018-May-26 09:30N 60°10' E 024°58'0 0.0
2018-May-26 09:00N 60°10' E 024°58'0 0.0
2018-May-26 08:30N 60°10' E 024°58'0 0.0
2018-May-26 08:00N 60°10' E 024°58'0 0.0
2018-May-26 07:27N 60°10' E 024°58'0 0.0
2018-May-26 06:57N 60°10' E 024°58'0 0.0
2018-May-26 06:30N 60°10' E 024°58'0 0.0
2018-May-26 05:30N 60°10' E 024°58'0 0.0
2018-May-26 05:00N 60°10' E 024°58'0 0.0
2018-May-26 04:30N 60°10' E 024°58'0 0.1
2018-May-26 04:00N 60°10' E 024°59'2 3.7
2018-May-26 03:30N 60°08' E 024°59'612.6
2018-May-26 03:00N 60°02' E 024°57'612.6
2018-May-26 02:30N 59°56' E 025°04'714.3
2018-May-26 02:00N 59°56' E 025°18'917.4
2018-May-26 01:31N 59°55' E 025°35'917.3
2018-May-26 01:01N 59°57' E 025°52'917.5
2018-May-26 00:30N 59°59' E 026°09'917.4
2018-May-26 00:00N 60°01' E 026°26'817.0
2018-May-25 23:30N 60°01' E 026°43'1017.2
2018-May-25 22:54N 59°60' E 027°04'717.2
2018-May-25 22:30N 60°03' E 027°15'917.2
2018-May-25 22:00N 60°08' E 027°30'917.2
2018-May-25 21:30N 60°12' E 027°45'917.4
2018-May-25 21:00N 60°10' E 028°03'919.2
2018-May-25 20:30N 60°06' E 028°20'918.7
2018-May-25 20:00N 60°03' E 028°38'1019.4
2018-May-25 19:30N 60°03' E 028°58'2413.8
2018-May-25 17:45N 59°59' E 029°45'2 7.8
2018-May-25 17:30N 59°58' E 029°48'510.2
2018-May-25 17:00N 59°56' E 029°57'5 9.8
2018-May-25 16:30N 59°54' E 030°07'3 6.2
2018-May-25 16:00N 59°54' E 030°13'3 5.6
2018-May-25 15:30N 59°56' E 030°16'0 0.3
2018-May-25 15:00N 59°56' E 030°16'0 0.0
2018-May-25 14:30N 59°56' E 030°16'0 0.0
2018-May-25 14:00N 59°56' E 030°16'0 0.0
2018-May-25 13:30N 59°56' E 030°16'0 0.0
2018-May-25 13:00N 59°56' E 030°16'0 0.0
2018-May-25 12:30N 59°56' E 030°16'0 0.0
2018-May-25 12:00N 59°56' E 030°16'0 0.0
2018-May-25 11:30N 59°56' E 030°16'0 0.0
2018-May-25 11:00N 59°56' E 030°16'0 0.0
2018-May-25 10:30N 59°56' E 030°16'0 0.0
2018-May-25 10:00N 59°56' E 030°16'0 0.0
2018-May-25 09:30N 59°56' E 030°16'0 0.0
2018-May-25 09:00N 59°56' E 030°16'0 0.0
2018-May-25 08:30N 59°56' E 030°16'0 0.0
2018-May-25 08:00N 59°56' E 030°16'0 0.0
2018-May-25 07:27N 59°56' E 030°16'0 0.0
2018-May-25 07:00N 59°56' E 030°16'0 0.0
2018-May-25 06:30N 59°56' E 030°16'0 0.0
2018-May-25 06:00N 59°56' E 030°16'0 0.0
2018-May-25 05:30N 59°56' E 030°16'0 0.0
2018-May-25 05:00N 59°56' E 030°16'0 0.0
2018-May-25 04:30N 59°56' E 030°16'0 0.0
2018-May-25 04:00N 59°56' E 030°16'0 0.0
2018-May-25 03:30N 59°56' E 030°16'0 0.0
2018-May-25 03:00N 59°56' E 030°16'0 0.0
2018-May-25 02:30N 59°56' E 030°16'0 0.0
2018-May-25 01:59N 59°56' E 030°16'0 0.0
2018-May-25 01:29N 59°56' E 030°16'0 0.0
2018-May-25 00:59N 59°56' E 030°16'0 0.0
2018-May-25 00:29N 59°56' E 030°16'0 0.0
2018-May-24 23:59N 59°56' E 030°16'0 0.0
2018-May-24 23:29N 59°56' E 030°16'0 0.0
2018-May-24 22:59N 59°56' E 030°16'0 0.0
2018-May-24 22:26N 59°56' E 030°16'0 0.0
2018-May-24 21:59N 59°56' E 030°16'0 0.0
2018-May-24 21:29N 59°56' E 030°16'0 0.0
2018-May-24 20:59N 59°56' E 030°16'0 0.0
2018-May-24 20:29N 59°56' E 030°16'0 0.0
2018-May-24 19:59N 59°56' E 030°16'0 0.0
2018-May-24 19:29N 59°56' E 030°16'0 0.0
2018-May-24 18:59N 59°56' E 030°16'0 0.0
2018-May-24 18:29N 59°56' E 030°16'0 0.0
2018-May-24 17:59N 59°56' E 030°16'0 0.0
2018-May-24 17:29N 59°56' E 030°16'0 0.0
2018-May-24 16:59N 59°56' E 030°16'0 0.0
2018-May-24 16:29N 59°56' E 030°16'0 0.0
2018-May-24 15:59N 59°56' E 030°16'0 0.0
2018-May-24 15:29N 59°56' E 030°16'0 0.0
2018-May-24 14:59N 59°56' E 030°16'0 0.0
2018-May-24 14:29N 59°56' E 030°16'0 0.0
2018-May-24 13:59N 59°56' E 030°16'0 0.0
2018-May-24 13:29N 59°56' E 030°16'0 0.0
2018-May-24 08:59N 59°56' E 030°16'0 0.0
2018-May-24 08:29N 59°56' E 030°16'0 0.0
2018-May-24 07:59N 59°56' E 030°16'0 1.0
2018-May-24 07:30N 59°55' E 030°16'3 5.7
2018-May-24 07:00N 59°53' E 030°12'3 6.5
2018-May-24 06:30N 59°54' E 030°06'5 9.6
2018-May-24 06:00N 59°56' E 029°57'510.4
2018-May-24 05:30N 59°58' E 029°47'5 9.9
2018-May-24 05:00N 60°00' E 029°39'1410.8
2018-May-24 03:42N 60°02' E 029°11'211.2
2018-May-24 03:29N 60°02' E 029°06'511.1
2018-May-24 03:00N 60°02' E 028°55'611.0
2018-May-24 02:30N 60°02' E 028°44'611.4
2018-May-24 02:00N 60°02' E 028°32'611.4
2018-May-24 01:30N 60°05' E 028°22'611.5
2018-May-24 01:00N 60°08' E 028°12'611.5
2018-May-24 00:30N 60°09' E 028°01'612.0
2018-May-24 00:00N 60°11' E 027°49'713.6
2018-May-23 23:30N 60°08' E 027°37'714.8
2018-May-23 23:00N 60°04' E 027°24'815.1
2018-May-23 22:30N 60°00' E 027°11'714.1
2018-May-23 21:59N 59°59' E 026°57'715.2
2018-May-23 21:30N 59°60' E 026°42'814.3
2018-May-23 20:57N 59°57' E 026°27'612.6
2018-May-23 20:30N 59°56' E 026°17'2513.1
2018-May-23 18:37N 59°50' E 025°29'213.0
2018-May-23 18:30N 59°49' E 025°26'612.9
2018-May-23 18:00N 59°48' E 025°13'713.2
2018-May-23 17:30N 59°47' E 025°01'714.9
2018-May-23 17:00N 59°42' E 024°49'714.3
2018-May-23 16:30N 59°36' E 024°41'713.8
2018-May-23 16:00N 59°30' E 024°45'3 5.0
2018-May-23 15:29N 59°27' E 024°46'0 0.0
2018-May-23 14:59N 59°27' E 024°46'0 0.0
2018-May-23 14:29N 59°27' E 024°46'0 0.0
2018-May-23 13:59N 59°27' E 024°46'0 0.0
2018-May-23 13:29N 59°27' E 024°46'0 0.0
2018-May-23 12:59N 59°27' E 024°46'0 0.0
2018-May-23 12:29N 59°27' E 024°46'0 0.0
2018-May-23 11:59N 59°27' E 024°46'0 0.0
2018-May-23 11:29N 59°27' E 024°46'0 0.0
2018-May-23 10:59N 59°27' E 024°46'0 0.0
2018-May-23 10:30N 59°27' E 024°46'0 0.0
2018-May-23 10:00N 59°27' E 024°46'0 0.0
2018-May-23 09:28N 59°27' E 024°46'1 1.5
2018-May-23 09:00N 59°28' E 024°46'611.1
2018-May-23 08:30N 59°30' E 024°36'612.2
2018-May-23 08:01N 59°30' E 024°24'612.2
2018-May-23 07:29N 59°30' E 024°12'612.7
2018-May-23 07:00N 59°30' E 023°59'712.7
2018-May-23 06:29N 59°30' E 023°46'612.8
2018-May-23 06:00N 59°31' E 023°34'612.3
2018-May-23 05:30N 59°30' E 023°22'815.5
2018-May-23 05:00N 59°29' E 023°07'1014.8
2018-May-23 04:19N 59°27' E 022°48'514.6
2018-May-23 04:00N 59°25' E 022°39'3615.2
2018-May-23 01:39N 59°03' E 021°44'215.1
2018-May-23 01:30N 59°01' E 021°41'715.0
2018-May-23 01:00N 58°56' E 021°31'815.1
2018-May-23 00:30N 58°51' E 021°20'815.2
2018-May-23 00:00N 58°47' E 021°08'134 7.9
2018-May-22 07:03N 57°24' E 017°48'112.1
2018-May-22 07:00N 57°23' E 017°48'912.3
2018-May-22 06:17N 57°15' E 017°50'512.4
2018-May-22 05:54N 57°10' E 017°52'512.4
2018-May-22 05:30N 57°05' E 017°53'612.1
2018-May-22 05:00N 56°59' E 017°55'812.3
2018-May-22 04:23N 56°52' E 017°57'512.8
2018-May-22 04:00N 56°47' E 017°58'612.8
2018-May-22 03:30N 56°40' E 018°00'612.8
2018-May-22 03:00N 56°34' E 018°02'612.7
2018-May-22 02:30N 56°28' E 018°04'612.8
2018-May-22 02:00N 56°22' E 018°05'713.1
2018-May-22 01:30N 56°15' E 018°07'814.9
2018-May-22 00:57N 56°07' E 018°11'715.0
2018-May-22 00:28N 56°00' E 018°14'715.1
2018-May-22 00:00N 55°53' E 018°18'814.9
2018-May-21 23:30N 55°46' E 018°22'814.9
2018-May-21 23:00N 55°39' E 018°26'714.9
2018-May-21 22:30N 55°32' E 018°31'714.0
2018-May-21 22:00N 55°25' E 018°31'612.9
2018-May-21 21:30N 55°19' E 018°36'713.5
2018-May-21 21:00N 55°13' E 018°40'714.7
2018-May-21 20:30N 55°06' E 018°45'714.8
2018-May-21 20:00N 54°60' E 018°50'714.4
2018-May-21 19:30N 54°53' E 018°55'714.4
2018-May-21 19:00N 54°46' E 018°59'713.8
2018-May-21 18:30N 54°39' E 018°57'714.3
2018-May-21 18:00N 54°33' E 018°51'713.1
2018-May-21 17:30N 54°28' E 018°43'4 8.2
2018-May-21 17:00N 54°25' E 018°39'1 1.5
2018-May-21 16:26N 54°24' E 018°40'0 0.0
2018-May-21 15:59N 54°24' E 018°40'0 0.0
2018-May-21 15:29N 54°24' E 018°40'0 0.0
2018-May-21 14:59N 54°24' E 018°40'0 0.0
2018-May-21 14:29N 54°24' E 018°40'0 0.0
2018-May-21 13:59N 54°24' E 018°40'0 0.0
2018-May-21 13:29N 54°24' E 018°40'0 0.0
2018-May-21 12:59N 54°24' E 018°40'0 0.0
2018-May-21 12:29N 54°24' E 018°40'0 0.0
2018-May-21 11:59N 54°24' E 018°40'0 0.0
2018-May-21 11:29N 54°24' E 018°40'0 0.0
2018-May-21 10:59N 54°24' E 018°40'0 0.0
2018-May-21 10:29N 54°24' E 018°40'0 0.0
2018-May-21 10:00N 54°24' E 018°40'1 2.9
2018-May-21 09:30N 54°23' E 018°40'1 2.8
2018-May-21 09:00N 54°24' E 018°40'4 7.4
2018-May-21 08:30N 54°28' E 018°41'714.4
2018-May-21 08:00N 54°33' E 018°49'1019.0
2018-May-21 07:30N 54°42' E 018°58'917.6
2018-May-21 07:00N 54°50' E 018°53'1019.6
2018-May-21 06:30N 54°56' E 018°39'918.4
2018-May-21 06:00N 54°58' E 018°24'918.6
2018-May-21 05:30N 54°58' E 018°08'918.5
2018-May-21 05:00N 54°58' E 017°51'918.4
2018-May-21 04:30N 54°55' E 017°36'1118.5
2018-May-21 03:54N 54°53' E 017°17'718.4
2018-May-21 03:30N 54°51' E 017°05'918.5
2018-May-21 03:00N 54°48' E 016°49'918.7
2018-May-21 02:30N 54°47' E 016°34'918.9
2018-May-21 02:00N 54°45' E 016°17'1019.0
2018-May-21 01:30N 54°44' E 016°01'1019.1
2018-May-21 01:00N 54°42' E 015°45'1019.3
2018-May-21 00:30N 54°40' E 015°28'1019.0
2018-May-21 00:00N 54°39' E 015°12'918.8
2018-May-20 23:31N 54°37' E 014°56'918.8
2018-May-20 23:00N 54°36' E 014°40'918.3
2018-May-20 22:30N 54°35' E 014°24'917.1
2018-May-20 22:00N 54°36' E 014°10'918.5
2018-May-20 21:30N 54°28' E 014°04'917.5
2018-May-20 21:00N 54°20' E 014°08'918.4
2018-May-20 20:30N 54°11' E 014°13'815.8
2018-May-20 20:00N 54°03' E 014°15'612.9
2018-May-20 19:30N 53°56' E 014°16'9 7.9
2018-May-20 18:24N 53°48' E 014°21'712.7
2018-May-20 17:51N 53°43' E 014°28'411.7
2018-May-20 17:30N 53°40' E 014°32'510.6
2018-May-20 17:01N 53°35' E 014°36'5 9.1
2018-May-20 16:29N 53°30' E 014°38'4 7.7
2018-May-20 15:59N 53°26' E 014°35'1 1.0
2018-May-20 15:25N 53°26' E 014°35'0 0.0
2018-May-20 14:55N 53°26' E 014°35'0 0.0
2018-May-20 14:25N 53°26' E 014°35'0 0.0
2018-May-20 13:55N 53°26' E 014°35'0 0.0
2018-May-20 13:25N 53°26' E 014°35'0 0.0
2018-May-20 12:58N 53°26' E 014°35'0 0.0
2018-May-20 12:28N 53°26' E 014°35'0 0.0
2018-May-20 11:58N 53°26' E 014°35'0 0.0
2018-May-20 11:28N 53°26' E 014°35'0 0.0
2018-May-20 10:58N 53°26' E 014°35'0 0.0
2018-May-20 10:25N 53°26' E 014°35'0 0.0
2018-May-20 09:55N 53°26' E 014°35'0 0.0
2018-May-20 09:25N 53°26' E 014°35'0 0.0
2018-May-20 08:55N 53°26' E 014°35'0 0.0
2018-May-20 08:25N 53°26' E 014°35'0 0.0
2018-May-20 07:58N 53°26' E 014°35'0 0.0
2018-May-20 07:29N 53°26' E 014°35'1 1.1
2018-May-20 06:59N 53°26' E 014°35'2 3.9
2018-May-20 06:28N 53°28' E 014°36'4 7.9
2018-May-20 06:00N 53°32' E 014°38'5 9.4
2018-May-20 05:29N 53°36' E 014°35'510.2
2018-May-20 05:01N 53°41' E 014°31'611.9
2018-May-20 04:29N 53°45' E 014°25'55 9.6
2018-May-19 22:47N 54°35' E 013°44'410.8
2018-May-19 22:26N 54°38' E 013°41'5 9.9
2018-May-19 21:54N 54°43' E 013°36'4 9.4
2018-May-19 21:30N 54°45' E 013°31'510.1
2018-May-19 21:00N 54°46' E 013°23'10 9.5
2018-May-19 19:55N 54°46' E 013°05'4 8.4
2018-May-19 19:29N 54°46' E 012°58'29 9.3
2018-May-19 16:24N 54°30' E 012°16'4 9.9
2018-May-19 16:01N 54°27' E 012°14'5 9.7
2018-May-19 15:30N 54°24' E 012°07'910.0
2018-May-19 14:35N 54°24' E 011°51'110.0
2018-May-19 14:30N 54°25' E 011°50'5 9.9
2018-May-19 13:58N 54°26' E 011°41'511.6
2018-May-19 13:30N 54°28' E 011°32'5 9.9
2018-May-19 13:00N 54°30' E 011°25'5 9.8
2018-May-19 12:30N 54°33' E 011°17'5 9.9
2018-May-19 12:00N 54°35' E 011°10'4 8.6
2018-May-19 11:30N 54°35' E 011°02'4 8.7
2018-May-19 11:00N 54°35' E 010°55'4 8.7
2018-May-19 10:30N 54°34' E 010°47'4 8.7
2018-May-19 10:00N 54°34' E 010°40'4 8.5
2018-May-19 09:29N 54°33' E 010°32'4 8.9
2018-May-19 09:00N 54°31' E 010°26'8 9.3
2018-May-19 08:12N 54°27' E 010°15'13 4.8
2018-May-19 05:29N 54°21' E 009°55'4 7.8
2018-May-19 05:00N 54°22' E 009°49'4 8.0
2018-May-19 04:30N 54°20' E 009°43'4 7.2
2018-May-19 04:00N 54°17' E 009°39'3 5.8
2018-May-19 03:30N 54°15' E 009°37'4 7.3
2018-May-19 03:00N 54°12' E 009°33'4 8.6
2018-May-19 02:30N 54°10' E 009°26'4 8.6
2018-May-19 02:00N 54°08' E 009°20'4 8.4
2018-May-19 01:30N 54°04' E 009°19'4 8.7
2018-May-19 01:00N 53°59' E 009°17'3 6.8
2018-May-19 00:30N 53°57' E 009°14'2 4.1
2018-May-19 00:00N 53°55' E 009°11'2 4.0
2018-May-18 23:30N 53°54' E 009°09'1 1.4
2018-May-18 23:00N 53°53' E 009°08'1 2.3
2018-May-18 22:30N 53°53' E 009°06'2 4.4
2018-May-18 22:00N 53°52' E 009°03'611.6
2018-May-18 21:30N 53°50' E 008°53'612.5
2018-May-18 21:00N 53°52' E 008°43'814.7
2018-May-18 20:30N 53°58' E 008°35'18 8.6
2018-May-18 18:21N 53°48' E 008°08'720.3
2018-May-18 18:00N 53°43' E 008°16'1120.9
2018-May-18 17:30N 53°37' E 008°30'3 6.5
2018-May-18 16:58N 53°34' E 008°33'0 0.0
2018-May-18 16:28N 53°34' E 008°33'0 0.0
2018-May-18 15:55N 53°34' E 008°33'0 0.0
2018-May-18 15:28N 53°34' E 008°33'0 0.0
2018-May-18 14:58N 53°34' E 008°33'0 0.0
2018-May-18 14:28N 53°34' E 008°33'0 0.0
2018-May-18 13:55N 53°34' E 008°33'0 0.0
2018-May-18 13:28N 53°34' E 008°33'0 0.0
2018-May-18 12:49N 53°34' E 008°33'0 0.0
2018-May-18 12:28N 53°34' E 008°33'0 0.0
2018-May-18 11:58N 53°34' E 008°33'0 0.0
2018-May-18 11:28N 53°34' E 008°33'0 0.0
2018-May-18 10:58N 53°34' E 008°33'0 0.0
2018-May-18 10:28N 53°34' E 008°33'0 0.0
2018-May-18 09:58N 53°34' E 008°33'0 0.0
2018-May-18 09:28N 53°34' E 008°33'0 0.0
2018-May-18 08:58N 53°34' E 008°33'0 0.0
2018-May-18 08:28N 53°34' E 008°33'0 0.0
2018-May-18 07:58N 53°34' E 008°33'0 0.0
2018-May-18 07:28N 53°34' E 008°33'0 0.0
2018-May-18 06:58N 53°34' E 008°33'0 0.0
2018-May-18 06:28N 53°34' E 008°33'0 0.0
2018-May-18 06:01N 53°34' E 008°33'0 0.2
2018-May-18 05:31N 53°34' E 008°33'3 5.7
2018-May-18 05:00N 53°36' E 008°30'612.7
2018-May-18 04:30N 53°40' E 008°22'714.1
2018-May-18 04:00N 53°45' E 008°13'5511.0
2018-May-17 22:58N 54°09' E 006°48'611.9
2018-May-17 22:27N 54°09' E 006°37'1411.9
2018-May-17 21:17N 54°08' E 006°14'3213.4
2018-May-17 18:54N 54°04' E 005°19'  

Dump ship's entire track history